Terminal Aerodrome Forecast
Issued by NWS

Home | Current Version | Previous Version | Text Only | Print | Product List | Glossary Off
Versions: 1 2 3 4 5 6 7 8 9 10 11 12 13 14 15 16

000
FTUS43 KICT 251932 AAA
TAFSLN
TAF AMD
KSLN 251932Z 2520/2618 33016G22KT P6SM BKN027
     FM260000 34013KT P6SM VCSH OVC025
     FM260500 34015G23KT P6SM VCSH OVC015
     FM261200 34016G24KT P6SM OVC030
     FM261600 34016G25KT P6SM BKN040=

USA.gov is the U.S. government's official web portal to all federal, state and local government web resources and services.